Aeroporto :
LOGIN :

Iscrizione | Disclaimer

   EN    FR    IT 

 










Sommario :    VFR   VFR Marginale   IFR   IFR Intensivo   IFR Molto Intensivo
Visibilità : 
Base nubi : 
>= 8 km
>= 3000ft
5 / 8 km
1000 / 3000 ft
1500m / 5 km
500 / 1000 ft
800 / 1500m
200 / 500 ft
< 800m
< 200 ft
Simboli :   Temporali  Nebbia  Neve Forte  Precipitazioni Forti  Vento > 20 kt
SIGMETs :   Varie  Temporali  Ghiacco  Turbolenza  Onda orograficha  Ceneri Vulcaniche






- Altitudine del aeroporto : 588 ft
- Codice IATA : DME


UUDD - Domodedovo International

ULTIMO METAR :
  • 040800Z 26004MPS 230V300 9999 BKN040 08/M04 Q1011 R32L/CLRD60 NOSIG

METARs OBSOLETI :
  • 040730Z 27004MPS 230V310 9999 SCT040 07/M04 Q1011 R32L/CLRD60 NOSIG
  • 040700Z 28005MPS 250V310 9999 FEW033 07/M03 Q1011 R32L/CLRD60 NOSIG
  • 040630Z 29004MPS CAVOK 06/M03 Q1011 R32L/CLRD60 NOSIG
  • 040600Z 27005MPS CAVOK 05/M02 Q1011 R32L/CLRD60 NOSIG
  • 040530Z 28005MPS CAVOK 05/M02 Q1010 R32L/CLRD60 NOSIG

TAF TAF UUDD
Valido dal 04 a 06 ore il 05 a 12 ore UTC


040458Z 0406/0512 26006MPS 9999 BKN020 TX07/0412Z TNM01/0503Z
TEMPO 0406/0413 29009G16MPS -SHRA SCT020CB
TEMPO 0506/0512 31010G17MPS 1200 SHSN FEW007 BKN012CB



MetMap, La meteo Aeronautica in un colpo d'occhio ! - Copyright ORBIFLY Dicembre 2007 - Disclaimer

ORBIFLY MET'MAP TEAM :

Programmazione e sviluppo : Alexandra Zaïnal
Concezione : Baudouin d'Aumeries
Aiuto per la programmazione : Marc-Olivier Méhu
Supporto tecnico e logistico : Manuel Goepfert
Aiuto per la traduzione : Arnaldo La Scala

Contatto : metmap@orbifly.com




FONTI E CREDITI :

   NOAA